Time;durP1;ratioP1;P1;durP2;ratioP2;P2;SDS_P1;SDS_P2;PMS_P1;PMS_P2;Temp;Humidity;BMP_temperature;BMP_pressure;BME280_temperature;BME280_humidity;BME280_pressure;Samples;Min_cycle;Max_cycle;Signal;HPM_P1;HPM_P2
2024/02/07 00:01:05;;;;;;;;;;;7.00;99.90;;;6.39;100.00;97540.09;5022234;28;1075;-68
2024/02/07 00:03:32;;;;;;;;;;;6.90;99.90;;;6.41;100.00;97549.47;5017464;28;1250;-68
2024/02/07 00:05:59;;;;;;;;;;;7.00;99.90;;;6.42;100.00;97524.53;5022337;28;1934;-68
2024/02/07 00:08:26;;;;;;;;;;;7.00;99.90;;;6.39;100.00;97515.16;5019570;28;1400;-68
2024/02/07 00:10:53;;;;;;;;;;;7.00;99.90;;;6.43;100.00;97516.78;5002812;28;1924;-68
2024/02/07 00:13:20;;;;;;;;;;;7.00;99.90;;;6.39;100.00;97509.16;5019647;28;1386;-68
2024/02/07 00:15:47;;;;;;;;;;;7.00;99.90;;;6.33;100.00;97483.53;5019652;28;1445;-68
2024/02/07 00:18:14;;;;;;;;;;;7.00;99.90;;;6.39;100.00;97556.41;5018917;28;1406;-67
2024/02/07 00:20:40;;;;;;;;;;;7.00;99.90;;;6.37;100.00;97503.19;5019102;28;1255;-68
2024/02/07 00:23:07;;;;;;;;;;;7.00;99.90;;;6.41;100.00;97479.00;5020828;28;1601;-68
2024/02/07 00:25:34;;;;;;;;;;;7.00;99.90;;;6.45;100.00;97509.84;5019897;28;1906;-68
2024/02/07 00:28:01;;;;;;;;;;;7.00;99.90;;;6.38;100.00;97492.81;5025187;28;1388;-68
2024/02/07 00:30:29;;;;;;;;;;;7.00;99.90;;;6.36;100.00;97461.09;5019925;28;2199;-68
2024/02/07 00:33:05;;;;;;;;;;;7.00;99.90;;;6.55;100.00;97494.13;5022472;28;1070;-68
2024/02/07 00:35:32;;;;;;;;;;;7.10;99.90;;;6.37;100.00;97460.22;5021424;28;1450;-68
2024/02/07 00:37:59;;;;;;;;;;;7.10;99.90;;;6.38;100.00;97479.09;5021704;28;1344;-68
2024/02/07 00:40:26;;;;;;;;;;;7.10;99.90;;;6.41;100.00;97455.78;5019426;28;1070;-68
2024/02/07 00:42:54;;;;;;;;;;;7.10;99.90;;;6.40;100.00;97420.59;5019710;28;3147;-67
2024/02/07 00:45:21;;;;;;;;;;;7.10;99.90;;;6.41;100.00;97433.47;5019131;28;1335;-68
2024/02/07 00:47:48;;;;;;;;;;;7.10;99.90;;;6.48;100.00;97447.88;5018584;28;1972;-68
2024/02/07 00:50:15;;;;;;;;;;;7.10;99.90;;;6.39;100.00;97473.91;5019019;28;1044;-68
2024/02/07 00:52:42;;;;;;;;;;;7.00;99.90;;;6.51;100.00;97477.03;5021896;28;1693;-68
2024/02/07 00:55:10;;;;;;;;;;;7.10;99.90;;;6.45;100.00;97458.28;5022232;28;1423;-68
2024/02/07 00:57:39;;;;;;;;;;;7.10;99.90;;;6.52;100.00;97451.19;5019832;28;2184;-68
2024/02/07 01:00:07;;;;;;;;;;;7.10;99.90;;;6.52;100.00;97455.50;5019764;28;2597;-68
2024/02/07 01:02:35;;;;;;;;;;;7.10;99.90;;;6.52;100.00;97432.28;5019026;28;1312;-68
2024/02/07 01:05:02;;;;;;;;;;;7.20;99.90;;;6.72;100.00;97435.16;5016762;28;2931;-68
2024/02/07 01:07:29;;;;;;;;;;;7.20;99.90;;;6.56;100.00;97406.38;5020399;28;1906;-68
2024/02/07 01:09:57;;;;;;;;;;;7.30;99.90;;;6.62;100.00;97452.63;5016411;28;1302;-68
2024/02/07 01:12:23;;;;;;;;;;;7.20;99.90;;;6.77;100.00;97443.59;5020289;28;1319;-67
2024/02/07 01:14:50;;;;;;;;;;;7.20;99.90;;;6.63;100.00;97438.00;5019126;28;1407;-68
2024/02/07 01:17:18;;;;;;;;;;;7.30;99.90;;;6.68;100.00;97406.03;5017435;28;1972;-68
2024/02/07 01:19:47;;;;;;;;;;;7.30;99.90;;;6.69;100.00;97414.59;5020915;28;1327;-68
2024/02/07 01:22:14;;;;;;;;;;;7.40;99.90;;;6.66;100.00;97428.44;5019294;28;2016;-68
2024/02/07 01:24:41;;;;;;;;;;;7.30;99.90;;;6.66;100.00;97394.91;5018850;28;1331;-68
2024/02/07 01:27:10;;;;;;;;;;;7.40;99.90;;;6.77;100.00;97419.53;5017684;28;1910;-68
2024/02/07 01:29:37;;;;;;;;;;;7.40;99.90;;;6.74;100.00;97376.63;5017484;28;1495;-68
2024/02/07 01:32:04;;;;;;;;;;;7.40;99.90;;;6.90;100.00;97421.69;5020785;28;3071;-68
2024/02/07 01:34:31;;;;;;;;;;;7.40;99.90;;;6.82;100.00;97428.84;5018987;28;1434;-68
2024/02/07 01:36:58;;;;;;;;;;;7.40;99.90;;;6.90;100.00;97436.34;5017409;28;1224;-68
2024/02/07 01:39:25;;;;;;;;;;;7.50;99.90;;;6.88;100.00;97413.16;5017791;28;1254;-68
2024/02/07 01:41:58;;;;;;;;;;;7.40;99.90;;;6.87;100.00;97401.16;5021884;28;1349;-68
2024/02/07 01:44:26;;;;;;;;;;;7.40;99.90;;;6.75;100.00;97362.84;5019745;28;1410;-68
2024/02/07 01:47:11;;;;;;;;;;;7.50;99.90;;;6.88;100.00;97387.34;5018020;28;2064;-67
2024/02/07 01:49:48;;;;;;;;;;;7.50;99.90;;;6.78;100.00;97374.81;5018317;28;1293;-67
2024/02/07 01:52:19;;;;;;;;;;;7.50;99.90;;;6.83;100.00;97337.63;5033696;28;1359;-67
2024/02/07 01:54:46;;;;;;;;;;;7.50;99.90;;;6.93;100.00;97401.84;5018551;28;1951;-68
2024/02/07 01:57:13;;;;;;;;;;;7.50;99.90;;;6.95;100.00;97380.25;5008054;28;2645;-67
2024/02/07 01:59:41;;;;;;;;;;;7.60;99.90;;;6.86;100.00;97373.66;5003091;28;2595;-68
2024/02/07 02:02:08;;;;;;;;;;;7.60;99.90;;;6.90;100.00;97403.63;5004221;28;1344;-68
2024/02/07 02:04:35;;;;;;;;;;;7.50;99.90;;;6.80;100.00;97339.50;5016667;28;1481;-68
2024/02/07 02:07:02;;;;;;;;;;;7.50;99.90;;;6.81;100.00;97348.91;5022511;28;2011;-68
2024/02/07 02:09:29;;;;;;;;;;;7.50;99.90;;;6.92;100.00;97408.75;5017860;28;1234;-68
2024/02/07 02:11:57;;;;;;;;;;;7.50;99.90;;;6.80;100.00;97375.59;5018030;28;1230;-68
2024/02/07 02:14:24;;;;;;;;;;;7.50;99.90;;;6.80;100.00;97357.53;5015918;28;3086;-68
2024/02/07 02:16:51;;;;;;;;;;;7.40;99.90;;;6.82;100.00;97373.78;5001623;28;1312;-68
2024/02/07 02:19:19;;;;;;;;;;;7.50;99.90;;;6.83;100.00;97353.13;5017957;28;1486;-68
2024/02/07 02:21:59;;;;;;;;;;;7.50;99.90;;;6.78;100.00;97361.91;4998649;28;1618;-68
2024/02/07 02:24:35;;;;;;;;;;;7.40;99.90;;;6.77;100.00;97373.94;5018973;28;1386;-68
2024/02/07 02:27:25;;;;;;;;;;;7.40;99.90;;;6.83;100.00;97331.63;5018943;28;1992;-68
2024/02/07 02:29:53;;;;;;;;;;;7.40;99.90;;;6.74;100.00;97370.63;5017407;28;1537;-68
2024/02/07 02:32:21;;;;;;;;;;;7.40;99.90;;;6.77;100.00;97339.56;5014870;28;1369;-68
2024/02/07 02:34:51;;;;;;;;;;;7.40;99.90;;;6.77;100.00;97336.97;5018656;28;1423;-68
2024/02/07 02:37:19;;;;;;;;;;;7.40;99.90;;;6.73;100.00;97331.09;5013892;28;1318;-68
2024/02/07 02:39:49;;;;;;;;;;;7.40;99.90;;;6.65;100.00;97323.56;5014995;28;1130;-73
2024/02/07 02:42:16;;;;;;;;;;;7.30;99.90;;;6.63;100.00;97350.31;5014681;28;2016;-67
2024/02/07 02:44:43;;;;;;;;;;;7.30;99.90;;;6.54;100.00;97314.47;5016041;28;1416;-68
2024/02/07 02:47:10;;;;;;;;;;;7.30;99.90;;;6.47;100.00;97324.13;5018110;28;1979;-67
2024/02/07 02:49:37;;;;;;;;;;;7.30;99.90;;;6.52;100.00;97311.09;5020082;28;1637;-67
2024/02/07 02:52:04;;;;;;;;;;;7.30;99.90;;;6.54;100.00;97327.38;5019214;28;1603;-67
2024/02/07 02:54:34;;;;;;;;;;;7.20;99.90;;;6.51;100.00;97294.78;5020790;28;1465;-68
2024/02/07 02:57:02;;;;;;;;;;;7.20;99.90;;;6.58;100.00;97292.88;5019999;28;3299;-68
2024/02/07 02:59:32;;;;;;;;;;;7.20;99.90;;;6.66;100.00;97322.69;5019533;28;2621;-68
2024/02/07 03:02:08;;;;;;;;;;;7.20;99.90;;;6.57;100.00;97296.34;5017206;28;1208;-68
2024/02/07 03:04:41;;;;;;;;;;;7.30;99.90;;;6.69;100.00;97307.13;5017454;28;1357;-67
2024/02/07 03:09:54;;;;;;;;;;;7.20;99.90;;;6.66;100.00;97303.78;5022444;28;1239;-68
2024/02/07 03:12:21;;;;;;;;;;;7.30;99.90;;;6.79;100.00;97278.44;5023689;28;1209;-68
2024/02/07 03:14:47;;;;;;;;;;;7.40;99.90;;;6.74;100.00;97296.66;5020216;28;2345;-68
2024/02/07 03:17:15;;;;;;;;;;;7.30;99.90;;;6.73;100.00;97273.47;5022558;28;1294;-68
2024/02/07 03:19:41;;;;;;;;;;;7.30;99.90;;;6.66;100.00;97259.94;5019550;28;1291;-68
2024/02/07 03:22:09;;;;;;;;;;;7.30;99.90;;;6.73;100.00;97291.53;5025472;28;1262;-67
2024/02/07 03:24:36;;;;;;;;;;;7.30;99.90;;;6.69;100.00;97295.97;5020879;28;1407;-68
2024/02/07 03:27:03;;;;;;;;;;;7.30;99.90;;;6.55;100.00;97296.41;5020633;28;2512;-68
2024/02/07 03:29:30;;;;;;;;;;;7.40;99.90;;;6.58;100.00;97290.31;5024226;28;1429;-68
2024/02/07 03:31:56;;;;;;;;;;;7.30;99.90;;;6.63;100.00;97301.31;5023062;28;1071;-68
2024/02/07 03:34:23;;;;;;;;;;;7.30;99.90;;;6.56;100.00;97269.72;5021775;28;1550;-69
2024/02/07 03:36:50;;;;;;;;;;;7.30;99.90;;;6.74;100.00;97290.66;5022326;28;1262;-68
2024/02/07 03:39:17;;;;;;;;;;;7.20;99.90;;;6.76;100.00;97283.72;5019727;28;1275;-68
2024/02/07 03:41:46;;;;;;;;;;;7.20;99.90;;;6.70;100.00;97284.75;5018383;28;3244;-68
2024/02/07 03:44:12;;;;;;;;;;;7.30;99.90;;;6.69;100.00;97250.38;5021045;28;1528;-68
2024/02/07 03:46:40;;;;;;;;;;;7.30;99.90;;;6.76;100.00;97284.56;5019599;28;1906;-68
2024/02/07 03:49:07;;;;;;;;;;;7.20;99.90;;;6.70;100.00;97246.06;5017897;28;1455;-68
2024/02/07 03:51:35;;;;;;;;;;;7.30;99.90;;;6.65;100.00;97219.56;5023187;28;1166;-68
2024/02/07 03:54:07;;;;;;;;;;;7.30;99.90;;;6.78;100.00;97238.09;5023215;28;1409;-68
2024/02/07 03:56:34;;;;;;;;;;;7.30;99.90;;;6.74;100.00;97205.53;5018500;28;2589;-68
2024/02/07 03:59:04;;;;;;;;;;;7.30;99.90;;;6.68;100.00;97210.00;5025976;28;1348;-68
2024/02/07 04:01:31;;;;;;;;;;;7.40;99.90;;;6.78;100.00;97227.78;5020797;28;1787;-68
2024/02/07 04:03:58;;;;;;;;;;;7.40;99.90;;;6.82;100.00;97237.06;5022848;28;1277;-67
2024/02/07 04:06:25;;;;;;;;;;;7.40;99.90;;;6.82;100.00;97219.00;5022087;28;1230;-67
2024/02/07 04:08:52;;;;;;;;;;;7.40;99.90;;;6.75;100.00;97210.66;5016965;28;1314;-68
2024/02/07 05:16:58;;;;;;;;;;;7.50;99.90;;;6.94;100.00;97125.72;5022134;28;1397;-67
2024/02/07 05:19:25;;;;;;;;;;;7.50;99.90;;;6.90;100.00;97113.81;5022197;28;1219;-68
2024/02/07 05:21:51;;;;;;;;;;;7.60;99.90;;;6.84;100.00;97117.47;5019645;28;1270;-67
2024/02/07 05:24:19;;;;;;;;;;;7.50;99.90;;;6.80;100.00;97091.84;5022478;28;1316;-68
2024/02/07 05:26:46;;;;;;;;;;;7.50;99.90;;;6.85;100.00;97095.09;5021881;28;2012;-68
2024/02/07 05:29:16;;;;;;;;;;;7.50;99.90;;;6.74;100.00;97094.63;5018479;28;1234;-68
2024/02/07 05:31:43;;;;;;;;;;;7.50;99.90;;;6.84;100.00;97114.03;5018891;28;1354;-67
2024/02/07 05:34:11;;;;;;;;;;;7.50;99.90;;;6.90;100.00;97111.25;5021311;28;1389;-68
2024/02/07 05:36:38;;;;;;;;;;;7.50;99.90;;;6.88;100.00;97128.50;5018339;28;1413;-68
2024/02/07 05:39:05;;;;;;;;;;;7.50;99.90;;;6.84;100.00;97122.63;5021600;28;1072;-68
2024/02/07 05:41:32;;;;;;;;;;;7.50;99.90;;;6.75;100.00;97129.84;5020246;28;2139;-69
2024/02/07 05:43:59;;;;;;;;;;;7.50;99.90;;;6.76;100.00;97123.78;5018293;28;1268;-68
2024/02/07 05:46:26;;;;;;;;;;;7.40;99.90;;;6.70;100.00;97112.81;5023284;28;1406;-67
2024/02/07 05:48:52;;;;;;;;;;;7.30;99.90;;;6.79;100.00;97144.31;5020959;28;1981;-68
2024/02/07 05:51:20;;;;;;;;;;;7.40;99.90;;;6.74;100.00;97084.31;5020983;28;1230;-68
2024/02/07 05:53:47;;;;;;;;;;;7.40;99.90;;;6.68;100.00;97104.28;5018603;28;3243;-68
2024/02/07 05:56:15;;;;;;;;;;;7.40;99.90;;;6.70;100.00;97104.19;5019796;28;2641;-68
2024/02/07 05:58:42;;;;;;;;;;;7.40;99.90;;;6.73;100.00;97111.84;5020921;28;1346;-67
2024/02/07 06:01:10;;;;;;;;;;;7.30;99.90;;;6.69;100.00;97092.22;5016357;28;1426;-67
2024/02/07 06:03:37;;;;;;;;;;;7.40;99.90;;;6.72;100.00;97112.72;5016930;28;1164;-67
2024/02/07 06:06:06;;;;;;;;;;;7.40;99.90;;;6.74;100.00;97104.94;5019516;28;1410;-68
2024/02/07 06:08:35;;;;;;;;;;;7.40;99.90;;;6.65;100.00;97073.41;5021970;28;1934;-68
2024/02/07 06:11:03;;;;;;;;;;;7.40;99.90;;;6.74;100.00;97112.69;5018118;28;2087;-68
2024/02/07 06:13:30;;;;;;;;;;;7.30;99.90;;;6.76;100.00;97118.63;5019647;28;1145;-68
2024/02/07 06:15:58;;;;;;;;;;;7.30;99.90;;;6.77;100.00;97095.34;5018048;28;1390;-68
2024/02/07 06:18:25;;;;;;;;;;;7.40;99.90;;;6.79;100.00;97103.88;5018529;28;1021;-67
2024/02/07 06:20:52;;;;;;;;;;;7.50;99.90;;;6.77;100.00;97128.88;5018150;28;1057;-68
2024/02/07 06:23:20;;;;;;;;;;;7.40;99.90;;;6.78;100.00;97096.22;5019324;28;1020;-68
2024/02/07 06:25:47;;;;;;;;;;;7.40;99.90;;;6.80;100.00;97069.47;5019490;28;2035;-68
2024/02/07 06:28:15;;;;;;;;;;;7.40;99.90;;;6.70;100.00;97105.06;5021247;28;1902;-68
2024/02/07 06:30:43;;;;;;;;;;;7.40;99.90;;;6.69;100.00;97085.31;5018651;28;1263;-68
2024/02/07 06:33:10;;;;;;;;;;;7.30;99.90;;;6.72;100.00;97070.63;5018160;28;1070;-67
2024/02/07 06:35:37;;;;;;;;;;;7.40;99.90;;;6.73;100.00;97073.16;5015871;28;1331;-67
2024/02/07 06:38:04;;;;;;;;;;;7.40;99.90;;;6.72;100.00;97093.84;5019410;28;3232;-68
2024/02/07 06:40:31;;;;;;;;;;;7.40;99.90;;;6.68;100.00;97052.69;5012781;28;1097;-68
2024/02/07 06:42:58;;;;;;;;;;;7.30;99.90;;;6.73;100.00;97068.00;5016974;28;1084;-68
2024/02/07 06:45:25;;;;;;;;;;;7.40;99.90;;;6.77;100.00;97097.09;5015371;28;1351;-68
2024/02/07 06:47:52;;;;;;;;;;;7.40;99.90;;;6.77;100.00;97089.34;5017736;28;1890;-68
2024/02/07 06:50:22;;;;;;;;;;;7.30;99.90;;;6.71;100.00;97064.63;5018910;28;1070;-68
2024/02/07 06:52:49;;;;;;;;;;;7.30;99.90;;;6.70;100.00;97070.66;5016508;28;2103;-68
2024/02/07 06:55:17;;;;;;;;;;;7.40;99.90;;;6.73;100.00;97070.59;5016132;28;1410;-68
2024/02/07 06:57:44;;;;;;;;;;;7.30;99.90;;;6.80;100.00;97069.47;5015864;28;2494;-68
2024/02/07 07:00:12;;;;;;;;;;;7.40;99.90;;;6.76;100.00;97087.69;5016283;28;1382;-68
2024/02/07 07:02:39;;;;;;;;;;;7.40;99.90;;;6.69;100.00;97069.00;5020308;28;1472;-68
2024/02/07 07:05:06;;;;;;;;;;;7.40;99.90;;;6.75;100.00;97047.28;5020288;28;1222;-68
2024/02/07 07:07:33;;;;;;;;;;;7.40;99.90;;;6.85;100.00;97082.19;5017040;28;1930;-67
2024/02/07 07:10:00;;;;;;;;;;;7.40;99.90;;;6.82;100.00;97079.72;5019498;28;1020;-68
2024/02/07 07:12:27;;;;;;;;;;;7.40;99.90;;;6.78;100.00;97063.50;5016929;28;1957;-68
2024/02/07 07:14:54;;;;;;;;;;;7.40;99.90;;;6.81;100.00;97067.72;5020489;28;1362;-68
2024/02/07 07:17:21;;;;;;;;;;;7.40;99.90;;;6.79;100.00;97072.91;5022992;28;1191;-68
2024/02/07 07:19:48;;;;;;;;;;;7.40;99.90;;;6.82;100.00;97087.44;5019669;28;998;-68
2024/02/07 07:22:14;;;;;;;;;;;7.50;99.90;;;6.85;100.00;97097.69;5021522;28;1408;-68
2024/02/07 07:24:41;;;;;;;;;;;7.40;99.90;;;6.93;100.00;97067.25;5015463;28;1354;-68
2024/02/07 07:27:08;;;;;;;;;;;7.40;99.90;;;6.77;100.00;97054.06;5015642;28;3107;-68
2024/02/07 07:29:35;;;;;;;;;;;7.40;99.90;;;6.77;100.00;97054.06;5023484;28;1977;-68
2024/02/07 07:32:04;;;;;;;;;;;7.40;99.90;;;7.01;100.00;97077.31;5023201;28;985;-68
2024/02/07 07:34:31;;;;;;;;;;;7.60;99.90;;;6.83;100.00;97042.72;5016938;28;1315;-67
2024/02/07 07:36:58;;;;;;;;;;;7.60;99.90;;;6.88;100.00;97097.56;5016740;28;1205;-69
2024/02/07 07:39:25;;;;;;;;;;;7.50;99.90;;;6.94;100.00;97058.66;5017891;28;1959;-68
2024/02/07 07:41:51;;;;;;;;;;;7.50;99.90;;;6.91;100.00;97012.28;5019216;28;2150;-68
2024/02/07 07:44:18;;;;;;;;;;;7.60;99.90;;;7.07;100.00;97077.94;5018793;28;1390;-68
2024/02/07 07:46:45;;;;;;;;;;;7.60;99.90;;;7.01;100.00;97065.25;5016452;28;1956;-68
2024/02/07 07:49:12;;;;;;;;;;;7.70;99.90;;;7.02;100.00;97046.28;5017788;28;1907;-69
2024/02/07 07:51:39;;;;;;;;;;;7.70;99.90;;;6.96;100.00;97077.50;5015291;28;1414;-68
2024/02/07 07:54:06;;;;;;;;;;;7.60;99.90;;;7.05;100.00;97104.72;5020652;28;2111;-68
2024/02/07 07:56:33;;;;;;;;;;;7.60;99.90;;;6.94;100.00;97078.44;5019081;28;1407;-67
2024/02/07 07:59:00;;;;;;;;;;;7.60;99.90;;;7.01;100.00;97113.47;5019859;28;2602;-67
2024/02/07 08:01:27;;;;;;;;;;;7.60;99.90;;;6.96;100.00;97080.06;5017228;28;2584;-68
2024/02/07 08:03:55;;;;;;;;;;;7.60;99.90;;;7.02;100.00;97100.47;5018685;28;1355;-68
2024/02/07 08:06:21;;;;;;;;;;;7.60;99.90;;;6.96;100.00;97094.72;5020810;28;1070;-68
2024/02/07 08:08:49;;;;;;;;;;;7.60;99.90;;;6.93;100.00;97108.53;5020418;28;1902;-68
2024/02/07 08:11:16;;;;;;;;;;;7.60;99.90;;;6.93;100.00;97053.53;5018746;28;3409;-68
2024/02/07 08:13:43;;;;;;;;;;;7.60;99.90;;;6.93;100.00;97051.78;5020470;28;1293;-68
2024/02/07 08:16:09;;;;;;;;;;;7.60;99.90;;;6.98;100.00;97062.81;5022331;28;1279;-68
2024/02/07 08:18:36;;;;;;;;;;;7.50;99.90;;;7.01;100.00;97105.72;5020921;28;1070;-68
2024/02/07 08:21:04;;;;;;;;;;;7.60;99.90;;;7.01;100.00;97044.63;5019774;28;1098;-68
2024/02/07 08:23:32;;;;;;;;;;;7.60;99.90;;;7.00;100.00;97047.25;5021460;28;1046;-67
2024/02/07 08:25:58;;;;;;;;;;;7.60;99.90;;;7.05;100.00;97072.00;5017107;28;2064;-68
2024/02/07 08:28:25;;;;;;;;;;;7.60;99.90;;;7.06;100.00;97055.59;5021090;28;1906;-68
2024/02/07 08:30:52;;;;;;;;;;;7.60;99.90;;;7.07;100.00;97070.22;5022097;28;1190;-68
2024/02/07 08:33:19;;;;;;;;;;;7.60;99.90;;;7.06;100.00;97067.66;5021530;28;1020;-68
2024/02/07 08:35:47;;;;;;;;;;;7.60;99.90;;;7.05;100.00;97053.94;5019516;28;1365;-67
2024/02/07 08:38:14;;;;;;;;;;;7.60;99.90;;;7.06;100.00;97068.50;5021439;28;1074;-67
2024/02/07 08:40:41;;;;;;;;;;;7.60;99.90;;;7.13;100.00;97076.88;5018513;28;1985;-68
2024/02/07 08:43:08;;;;;;;;;;;7.60;99.90;;;7.04;100.00;97044.50;5018783;28;1155;-67
2024/02/07 08:45:37;;;;;;;;;;;7.70;99.90;;;7.12;100.00;97073.44;5018710;28;1288;-68
2024/02/07 08:48:06;;;;;;;;;;;7.70;99.90;;;7.05;100.00;97042.78;5019607;28;1930;-68
2024/02/07 08:50:33;;;;;;;;;;;;;;;7.17;100.00;97036.31;5018116;28;1113;-68
2024/02/07 08:53:00;;;;;;;;;;;7.70;99.90;;;7.13;100.00;97088.03;5016593;28;1121;-68
2024/02/07 08:55:27;;;;;;;;;;;7.70;99.90;;;7.13;100.00;97053.63;5019900;28;3096;-68
2024/02/07 08:57:54;;;;;;;;;;;7.70;99.90;;;7.17;100.00;97036.31;5020822;28;2687;-68
2024/02/07 09:00:21;;;;;;;;;;;7.70;99.90;;;7.16;100.00;97068.16;5018896;28;1209;-68
2024/02/07 09:02:51;;;;;;;;;;;7.70;99.90;;;7.23;100.00;97043.81;5019180;28;1010;-68
2024/02/07 09:05:19;;;;;;;;;;;7.80;99.90;;;7.18;100.00;97025.91;5018884;28;1296;-68
2024/02/07 09:07:47;;;;;;;;;;;7.80;99.90;;;7.23;100.00;97036.94;5016520;28;1132;-68
2024/02/07 09:10:14;;;;;;;;;;;7.80;99.90;;;7.29;100.00;97051.31;5020590;28;1264;-68
2024/02/07 09:12:42;;;;;;;;;;;7.80;99.90;;;7.34;100.00;97041.66;5020129;28;2000;-68
2024/02/07 09:15:09;;;;;;;;;;;7.80;99.90;;;7.25;100.00;97070.41;5021050;28;1525;-67
2024/02/07 09:17:36;;;;;;;;;;;7.80;99.90;;;7.24;100.00;97053.25;5014160;28;1009;-68
2024/02/07 09:20:03;;;;;;;;;;;7.80;99.90;;;7.33;100.00;97030.50;5016039;28;994;-68
2024/02/07 09:22:30;;;;;;;;;;;7.90;99.90;;;7.33;100.00;97083.88;5019131;28;1078;-68
2024/02/07 09:24:57;;;;;;;;;;;7.80;99.90;;;7.30;100.00;97056.44;5019190;28;1281;-68
2024/02/07 09:27:24;;;;;;;;;;;7.90;99.90;;;7.32;100.00;97039.16;5022381;28;2533;-68
2024/02/07 09:29:53;;;;;;;;;;;7.90;99.90;;;7.30;100.00;97042.69;5020079;28;1963;-68
2024/02/07 09:32:37;;;;;;;;;;;7.90;99.90;;;7.29;100.00;97017.75;5013724;28;1106;-68
2024/02/07 09:35:04;;;;;;;;;;;7.90;99.90;;;7.33;100.00;97034.81;5019837;28;1466;-68
2024/02/07 09:37:31;;;;;;;;;;;7.90;99.90;;;7.28;100.00;97016.09;5019932;28;1508;-68
2024/02/07 09:39:58;;;;;;;;;;;7.90;99.90;;;7.29;100.00;97033.25;5015811;28;3276;-68
2024/02/07 09:42:25;;;;;;;;;;;7.80;99.90;;;7.27;100.00;97033.31;5017106;28;1087;-68
2024/02/07 09:44:54;;;;;;;;;;;7.90;99.90;;;7.25;100.00;97031.69;5020219;28;1426;-68
2024/02/07 09:47:25;;;;;;;;;;;7.90;99.90;;;7.29;100.00;97015.19;5017748;28;1065;-68
2024/02/07 09:49:53;;;;;;;;;;;7.80;99.90;;;7.26;100.00;97000.66;5016548;28;1938;-68
2024/02/07 09:52:21;;;;;;;;;;;7.90;99.90;;;7.33;100.00;97034.81;5016318;28;1272;-68
2024/02/07 09:54:51;;;;;;;;;;;7.90;99.90;;;7.36;100.00;97008.03;5018306;28;2700;-68
2024/02/07 09:57:19;;;;;;;;;;;7.90;99.90;;;7.35;100.00;97045.94;5017837;28;1157;-68
2024/02/07 09:59:46;;;;;;;;;;;7.80;99.90;;;7.29;100.00;97028.94;5020444;28;1062;-68
2024/02/07 10:02:16;;;;;;;;;;;7.90;99.90;;;7.36;100.00;97046.78;5019358;28;1035;-68
2024/02/07 10:04:46;;;;;;;;;;;7.90;99.90;;;7.38;100.00;97032.06;5019134;28;1376;-68
2024/02/07 10:07:13;;;;;;;;;;;7.90;99.90;;;7.37;100.00;97032.94;5021181;28;1167;-67
2024/02/07 10:09:40;;;;;;;;;;;7.90;99.90;;;7.41;100.00;97039.69;5020263;28;2400;-68
2024/02/07 10:12:07;;;;;;;;;;;7.90;99.90;;;7.38;100.00;97025.16;5023497;28;1101;-68
2024/02/07 10:14:34;;;;;;;;;;;7.90;99.90;;;7.36;100.00;97024.38;5015394;28;1360;-68
2024/02/07 10:17:04;;;;;;;;;;;7.90;99.90;;;7.44;100.00;96999.09;5018432;28;1315;-68
2024/02/07 10:19:32;;;;;;;;;;;7.90;99.90;;;7.42;100.00;97031.06;5015533;28;1091;-68
2024/02/07 10:21:59;;;;;;;;;;;7.90;99.90;;;7.47;100.00;97011.06;5017039;28;3434;-67
2024/02/07 10:24:29;;;;;;;;;;;7.90;99.90;;;7.42;100.00;97013.81;5019381;28;2321;-67
2024/02/07 10:26:56;;;;;;;;;;;8.00;99.90;;;7.37;100.00;96991.63;5017814;28;1055;-68
2024/02/07 10:29:25;;;;;;;;;;;8.00;99.90;;;7.36;100.00;97010.63;5018788;28;1898;-68
2024/02/07 10:31:53;;;;;;;;;;;8.00;99.90;;;7.45;100.00;97023.19;5019457;28;1454;-67
2024/02/07 10:34:20;;;;;;;;;;;7.90;99.90;;;7.45;100.00;96987.88;5020597;28;1375;-67
2024/02/07 10:36:56;;;;;;;;;;;8.00;99.90;;;7.42;100.00;97023.31;5015376;28;2019;-68
2024/02/07 10:39:23;;;;;;;;;;;7.90;99.90;;;7.42;100.00;96990.56;5022287;28;1061;-67
2024/02/07 10:41:49;;;;;;;;;;;8.00;99.90;;;7.52;100.00;96971.22;5016740;28;975;-69
2024/02/07 10:44:17;;;;;;;;;;;8.00;99.90;;;7.64;100.00;97028.44;5016908;28;1387;-68
2024/02/07 10:46:44;;;;;;;;;;;8.00;99.90;;;7.58;100.00;96987.41;5014769;28;1276;-67
2024/02/07 10:49:11;;;;;;;;;;;8.10;99.90;;;7.66;100.00;96965.53;5015033;28;1906;-68
2024/02/07 10:51:40;;;;;;;;;;;8.10;99.90;;;7.65;100.00;96984.50;5016988;28;2092;-68
2024/02/07 10:54:08;;;;;;;;;;;8.10;99.90;;;7.61;100.00;96958.84;5020295;28;1308;-68
2024/02/07 10:56:37;;;;;;;;;;;8.10;99.90;;;7.61;100.00;96971.75;5018668;28;2636;-68
2024/02/07 10:59:04;;;;;;;;;;;8.10;99.90;;;7.60;100.00;96931.34;5017431;28;1217;-68
2024/02/07 11:01:32;;;;;;;;;;;8.10;99.90;;;7.60;100.00;96963.19;5015373;28;1074;-68
2024/02/07 11:04:00;;;;;;;;;;;8.10;99.90;;;7.67;100.00;96974.09;5017032;28;1276;-68
2024/02/07 11:06:27;;;;;;;;;;;8.10;99.90;;;7.60;100.00;96946.84;5001171;28;1086;-68
2024/02/07 11:08:57;;;;;;;;;;;8.10;99.90;;;7.56;100.00;96953.88;5018116;28;1981;-68
2024/02/07 11:11:25;;;;;;;;;;;8.10;99.90;;;7.65;100.00;96943.16;5001234;28;3164;-68
2024/02/07 11:13:52;;;;;;;;;;;8.10;99.90;;;7.64;100.00;96956.13;5017337;28;1434;-68
2024/02/07 11:16:20;;;;;;;;;;;8.20;99.90;;;7.64;100.00;96935.47;5020310;28;1141;-67
2024/02/07 11:18:47;;;;;;;;;;;8.20;99.90;;;7.67;100.00;96891.44;5017241;28;1085;-68
2024/02/07 11:21:18;;;;;;;;;;;8.20;99.90;;;7.71;100.00;96911.91;5019811;28;1438;-68
2024/02/07 11:23:46;;;;;;;;;;;8.10;99.90;;;7.66;100.00;96916.44;5018806;28;1026;-68
2024/02/07 11:26:14;;;;;;;;;;;8.20;99.90;;;7.59;100.00;96935.66;5018657;28;1307;-68
2024/02/07 11:28:42;;;;;;;;;;;8.20;99.90;;;7.67;100.00;96912.94;5023296;28;1977;-69
2024/02/07 11:31:09;;;;;;;;;;;8.10;99.90;;;7.63;100.00;96911.38;5023630;28;1060;-67
2024/02/07 11:33:36;;;;;;;;;;;8.10;99.90;;;7.60;100.00;96895.19;5020104;28;1009;-68
2024/02/07 11:36:17;;;;;;;;;;;8.20;99.90;;;7.61;100.00;96897.69;5024434;28;1474;-68
2024/02/07 11:38:48;;;;;;;;;;;8.10;99.90;;;7.61;100.00;96895.13;5018310;28;2094;-68
2024/02/07 11:41:19;;;;;;;;;;;8.20;99.90;;;7.59;100.00;96883.16;5005220;28;1145;-68
2024/02/07 11:43:49;;;;;;;;;;;8.10;99.90;;;7.59;100.00;96912.41;5021401;28;1351;-68
2024/02/07 11:46:17;;;;;;;;;;;8.20;99.90;;;7.58;100.00;96837.59;5020994;28;1323;-68
2024/02/07 11:48:51;;;;;;;;;;;8.20;99.90;;;7.71;100.00;96856.84;5019376;28;1934;-67
2024/02/07 11:51:20;;;;;;;;;;;8.20;99.90;;;7.66;100.00;96962.06;5020656;28;1125;-68
2024/02/07 11:53:47;;;;;;;;;;;8.20;99.90;;;7.71;100.00;96873.16;5021192;28;3126;-68
2024/02/07 11:56:20;;;;;;;;;;;8.20;99.90;;;7.67;100.00;96871.63;5021338;28;2592;-68
2024/02/07 11:58:50;;;;;;;;;;;8.20;99.90;;;7.66;100.00;96838.97;5019629;28;1119;-68
2024/02/07 12:01:17;;;;;;;;;;;8.30;99.90;;;7.66;100.00;96892.34;5019472;28;1266;-67
2024/02/07 12:03:44;;;;;;;;;;;8.20;99.90;;;7.67;100.00;96857.88;5019703;28;1062;-68
2024/02/07 12:06:11;;;;;;;;;;;8.20;99.90;;;7.68;100.00;96900.88;5022052;28;1269;-67
2024/02/07 12:08:39;;;;;;;;;;;8.10;99.90;;;7.60;100.00;96887.44;5020394;28;1898;-68
2024/02/07 12:11:06;;;;;;;;;;;8.20;99.90;;;7.71;100.00;96872.34;5023312;28;2095;-67
2024/02/07 12:13:37;;;;;;;;;;;8.20;99.90;;;7.70;100.00;96901.66;5023525;28;1107;-68
2024/02/07 12:16:06;;;;;;;;;;;8.20;99.90;;;7.64;100.00;96913.09;5023480;28;1283;-68
2024/02/07 12:18:34;;;;;;;;;;;8.20;99.90;;;7.63;100.00;96877.81;5009034;28;1093;-67
2024/02/07 12:21:02;;;;;;;;;;;8.20;99.90;;;7.70;100.00;96901.66;5025397;28;1430;-68
2024/02/07 12:23:29;;;;;;;;;;;8.20;99.90;;;7.61;100.00;96858.13;5022157;28;1401;-68
2024/02/07 12:26:00;;;;;;;;;;;8.20;99.90;;;7.72;100.00;96863.69;5020160;28;1940;-67
2024/02/07 12:28:28;;;;;;;;;;;8.20;99.90;;;7.71;100.00;96849.94;5025009;28;1133;-67
2024/02/07 12:30:55;;;;;;;;;;;8.30;99.90;;;7.73;100.00;96863.63;5022453;28;1894;-68
2024/02/07 12:33:23;;;;;;;;;;;8.30;99.90;;;7.69;100.00;96897.41;5025254;28;1200;-68
2024/02/07 12:35:57;;;;;;;;;;;8.20;99.90;;;7.67;100.00;96838.03;5024660;28;1316;-68
2024/02/07 12:38:24;;;;;;;;;;;8.30;99.90;;;7.68;100.00;96986.94;5022799;28;3109;-68
2024/02/07 12:40:53;;;;;;;;;;;8.30;99.90;;;7.72;100.00;96959.25;5026722;28;2481;-67
2024/02/07 12:43:24;;;;;;;;;;;8.30;99.90;;;7.73;100.00;96893.75;5033282;28;1230;-68
2024/02/07 12:45:55;;;;;;;;;;;8.40;99.90;;;7.71;100.00;96865.44;5022563;28;1399;-67